sensor_id;sensor_type;location;lat;lon;timestamp;pressure;altitude;pressure_sealevel;temperature;humidity
63019;BME280;49105;46.046;10.760;2023-04-10T00:01:09;96198.81;;;8.49;57.90
63019;BME280;49105;46.046;10.760;2023-04-10T00:03:34;96191.09;;;8.42;58.12
63019;BME280;49105;46.046;10.760;2023-04-10T00:06:09;96192.28;;;8.35;57.93
63019;BME280;49105;46.046;10.760;2023-04-10T00:08:46;96196.75;;;8.34;57.91
63019;BME280;49105;46.046;10.760;2023-04-10T00:11:25;96193.81;;;8.31;58.11
63019;BME280;49105;46.046;10.760;2023-04-10T00:13:52;96200.59;;;8.27;58.41
63019;BME280;49105;46.046;10.760;2023-04-10T00:16:17;96187.34;;;8.21;57.95
63019;BME280;49105;46.046;10.760;2023-04-10T00:18:52;96190.72;;;8.17;57.85
63019;BME280;49105;46.046;10.760;2023-04-10T00:21:26;96193.31;;;8.12;58.13
63019;BME280;49105;46.046;10.760;2023-04-10T00:23:51;96192.19;;;8.08;58.24
63019;BME280;49105;46.046;10.760;2023-04-10T00:26:26;96185.56;;;8.05;58.78
63019;BME280;49105;46.046;10.760;2023-04-10T00:28:56;96194.25;;;8.06;58.55
63019;BME280;49105;46.046;10.760;2023-04-10T00:31:21;96190.59;;;8.07;58.55
63019;BME280;49105;46.046;10.760;2023-04-10T00:33:47;96192.19;;;8.08;58.84
63019;BME280;49105;46.046;10.760;2023-04-10T00:36:13;96194.88;;;8.13;58.70
63019;BME280;49105;46.046;10.760;2023-04-10T00:38:47;96192.09;;;8.19;58.47
63019;BME280;49105;46.046;10.760;2023-04-10T00:41:16;96191.53;;;8.17;58.18
63019;BME280;49105;46.046;10.760;2023-04-10T00:43:45;96185.72;;;8.15;58.77
63019;BME280;49105;46.046;10.760;2023-04-10T00:46:11;96180.13;;;8.12;58.42
63019;BME280;49105;46.046;10.760;2023-04-10T00:48:40;96185.88;;;8.09;58.69
63019;BME280;49105;46.046;10.760;2023-04-10T00:51:06;96181.66;;;8.08;58.78
63019;BME280;49105;46.046;10.760;2023-04-10T00:53:31;96187.13;;;8.06;58.82
63019;BME280;49105;46.046;10.760;2023-04-10T00:56:06;96175.25;;;8.04;58.74
63019;BME280;49105;46.046;10.760;2023-04-10T00:58:38;96173.41;;;8.04;58.71
63019;BME280;49105;46.046;10.760;2023-04-10T01:01:04;96175.75;;;8.01;58.77
63019;BME280;49105;46.046;10.760;2023-04-10T01:03:30;96174.09;;;7.94;58.75
63019;BME280;49105;46.046;10.760;2023-04-10T01:09:12;96180.78;;;7.85;58.84
63019;BME280;49105;46.046;10.760;2023-04-10T01:11:56;96176.03;;;7.82;58.50
63019;BME280;49105;46.046;10.760;2023-04-10T01:17:12;96179.94;;;7.63;58.87
63019;BME280;49105;46.046;10.760;2023-04-10T01:25:37;96177.84;;;7.48;58.91
63019;BME280;49105;46.046;10.760;2023-04-10T01:31:03;96186.00;;;7.30;58.70
63019;BME280;49105;46.046;10.760;2023-04-10T01:33:42;96186.03;;;7.18;58.76
63019;BME280;49105;46.046;10.760;2023-04-10T01:36:11;96184.66;;;7.15;58.60
63019;BME280;49105;46.046;10.760;2023-04-10T01:38:44;96187.56;;;7.14;58.88
63019;BME280;49105;46.046;10.760;2023-04-10T01:41:18;96188.59;;;7.13;58.79
63019;BME280;49105;46.046;10.760;2023-04-10T01:43:47;96187.94;;;7.06;59.12
63019;BME280;49105;46.046;10.760;2023-04-10T01:46:24;96191.53;;;7.00;58.97
63019;BME280;49105;46.046;10.760;2023-04-10T01:49:00;96194.16;;;7.00;58.74
63019;BME280;49105;46.046;10.760;2023-04-10T01:51:36;96194.84;;;6.95;59.06
63019;BME280;49105;46.046;10.760;2023-04-10T01:54:02;96192.13;;;6.90;59.26
63019;BME280;49105;46.046;10.760;2023-04-10T01:56:34;96184.00;;;6.91;59.80
63019;BME280;49105;46.046;10.760;2023-04-10T01:59:00;96188.22;;;6.92;59.59
63019;BME280;49105;46.046;10.760;2023-04-10T02:01:37;96186.72;;;6.96;59.50
63019;BME280;49105;46.046;10.760;2023-04-10T02:04:14;96186.09;;;7.06;59.13
63019;BME280;49105;46.046;10.760;2023-04-10T02:09:59;96186.59;;;7.20;59.06
63019;BME280;49105;46.046;10.760;2023-04-10T02:12:31;96180.31;;;7.21;59.14
63019;BME280;49105;46.046;10.760;2023-04-10T02:15:05;96188.75;;;7.23;59.01
63019;BME280;49105;46.046;10.760;2023-04-10T02:17:41;96180.63;;;7.25;59.28
63019;BME280;49105;46.046;10.760;2023-04-10T02:20:19;96186.59;;;7.20;59.21
63019;BME280;49105;46.046;10.760;2023-04-10T02:22:48;96183.41;;;7.18;59.36
63019;BME280;49105;46.046;10.760;2023-04-10T02:25:15;96189.34;;;7.25;59.57
63019;BME280;49105;46.046;10.760;2023-04-10T02:27:49;96187.72;;;7.24;59.28
63019;BME280;49105;46.046;10.760;2023-04-10T02:30:19;96187.88;;;7.17;59.18
63019;BME280;49105;46.046;10.760;2023-04-10T02:32:44;96193.41;;;7.16;58.94
63019;BME280;49105;46.046;10.760;2023-04-10T02:35:10;96193.41;;;7.16;59.33
63019;BME280;49105;46.046;10.760;2023-04-10T02:37:44;96187.88;;;7.17;59.42
63019;BME280;49105;46.046;10.760;2023-04-10T02:40:11;96192.34;;;7.17;59.34
63019;BME280;49105;46.046;10.760;2023-04-10T02:42:37;96192.34;;;7.17;59.46
63019;BME280;49105;46.046;10.760;2023-04-10T02:45:14;96192.44;;;7.22;59.17
63019;BME280;49105;46.046;10.760;2023-04-10T02:47:39;96189.34;;;7.25;59.30
63019;BME280;49105;46.046;10.760;2023-04-10T02:50:20;96192.50;;;7.27;59.21
63019;BME280;49105;46.046;10.760;2023-04-10T02:52:58;96192.84;;;7.31;58.93
63019;BME280;49105;46.046;10.760;2023-04-10T02:55:33;96190.94;;;7.26;58.94
63019;BME280;49105;46.046;10.760;2023-04-10T02:58:07;96187.63;;;7.19;59.14
63019;BME280;49105;46.046;10.760;2023-04-10T03:00:47;96193.88;;;7.13;59.17
63019;BME280;49105;46.046;10.760;2023-04-10T03:03:19;96189.63;;;7.12;59.23
63019;BME280;49105;46.046;10.760;2023-04-10T03:05:47;96189.47;;;7.18;59.32
63019;BME280;49105;46.046;10.760;2023-04-10T03:08:19;96189.16;;;7.15;58.87
63019;BME280;49105;46.046;10.760;2023-04-10T03:10:46;96192.03;;;7.13;58.99
63019;BME280;49105;46.046;10.760;2023-04-10T03:13:14;96187.22;;;7.10;59.06
63019;BME280;49105;46.046;10.760;2023-04-10T03:15:46;96180.84;;;7.06;59.03
63019;BME280;49105;46.046;10.760;2023-04-10T03:18:24;96187.06;;;7.00;59.16
63019;BME280;49105;46.046;10.760;2023-04-10T03:20:49;96190.25;;;7.02;59.23
63019;BME280;49105;46.046;10.760;2023-04-10T03:23:24;96193.91;;;7.01;58.92
63019;BME280;49105;46.046;10.760;2023-04-10T03:25:59;96188.22;;;6.92;58.99
63019;BME280;49105;46.046;10.760;2023-04-10T03:28:24;96188.28;;;6.81;59.13
63019;BME280;49105;46.046;10.760;2023-04-10T03:30:53;96187.59;;;6.74;59.02
63019;BME280;49105;46.046;10.760;2023-04-10T03:33:22;96190.94;;;6.69;59.10
63019;BME280;49105;46.046;10.760;2023-04-10T03:35:49;96192.69;;;6.63;59.30
63019;BME280;49105;46.046;10.760;2023-04-10T03:38:14;96193.38;;;6.59;59.16
63019;BME280;49105;46.046;10.760;2023-04-10T03:40:43;96192.00;;;6.56;59.19
63019;BME280;49105;46.046;10.760;2023-04-10T03:43:17;96192.56;;;6.58;59.17
63019;BME280;49105;46.046;10.760;2023-04-10T03:45:49;96190.63;;;6.54;59.14
63019;BME280;49105;46.046;10.760;2023-04-10T03:48:24;96193.88;;;6.44;59.72
63019;BME280;49105;46.046;10.760;2023-04-10T03:50:53;96198.09;;;6.33;59.63
63019;BME280;49105;46.046;10.760;2023-04-10T03:53:24;96206.00;;;6.33;59.84
63019;BME280;49105;46.046;10.760;2023-04-10T03:55:51;96205.78;;;6.35;59.57
63019;BME280;49105;46.046;10.760;2023-04-10T03:58:23;96202.69;;;6.38;59.89
63019;BME280;49105;46.046;10.760;2023-04-10T04:00:54;96197.66;;;6.36;59.77
63019;BME280;49105;46.046;10.760;2023-04-10T04:03:20;96200.53;;;6.35;59.97
63019;BME280;49105;46.046;10.760;2023-04-10T04:05:49;96193.69;;;6.34;59.82
63019;BME280;49105;46.046;10.760;2023-04-10T04:08:21;96199.72;;;6.34;59.90
63019;BME280;49105;46.046;10.760;2023-04-10T04:10:53;96210.91;;;6.41;59.77
63019;BME280;49105;46.046;10.760;2023-04-10T04:13:21;96207.63;;;6.34;59.34
63019;BME280;49105;46.046;10.760;2023-04-10T04:15:47;96208.63;;;6.33;59.79
63019;BME280;49105;46.046;10.760;2023-04-10T04:18:19;96213.22;;;6.26;59.37
63019;BME280;49105;46.046;10.760;2023-04-10T04:20:44;96210.72;;;6.19;59.74
63019;BME280;49105;46.046;10.760;2023-04-10T04:23:10;96215.50;;;6.22;59.46
63019;BME280;49105;46.046;10.760;2023-04-10T04:25:44;96216.06;;;6.13;59.77
63019;BME280;49105;46.046;10.760;2023-04-10T04:28:19;96218.16;;;5.99;60.11
63019;BME280;49105;46.046;10.760;2023-04-10T04:30:54;96221.81;;;5.98;60.00
63019;BME280;49105;46.046;10.760;2023-04-10T04:33:28;96223.06;;;5.95;59.58
63019;BME280;49105;46.046;10.760;2023-04-10T04:36:03;96231.38;;;5.92;59.82
63019;BME280;49105;46.046;10.760;2023-04-10T04:38:35;96246.44;;;5.85;59.89
63019;BME280;49105;46.046;10.760;2023-04-10T04:41:00;96233.66;;;5.77;59.94
63019;BME280;49105;46.046;10.760;2023-04-10T04:43:25;96235.22;;;5.66;60.11
63019;BME280;49105;46.046;10.760;2023-04-10T04:45:51;96239.22;;;5.69;59.88
63019;BME280;49105;46.046;10.760;2023-04-10T04:48:16;96240.38;;;5.73;59.80
63019;BME280;49105;46.046;10.760;2023-04-10T04:50:51;96238.31;;;5.75;59.87
63019;BME280;49105;46.046;10.760;2023-04-10T04:53:26;96244.84;;;5.72;59.95
63019;BME280;49105;46.046;10.760;2023-04-10T04:55:57;96239.78;;;5.71;60.16
63019;BME280;49105;46.046;10.760;2023-04-10T04:58:29;96243.47;;;5.70;59.97
63019;BME280;49105;46.046;10.760;2023-04-10T05:00:54;96241.50;;;5.65;60.02
63019;BME280;49105;46.046;10.760;2023-04-10T05:03:20;96242.41;;;5.59;60.15
63019;BME280;49105;46.046;10.760;2023-04-10T05:05:45;96244.09;;;5.54;60.12
63019;BME280;49105;46.046;10.760;2023-04-10T05:08:11;96239.44;;;5.56;60.05
63019;BME280;49105;46.046;10.760;2023-04-10T05:10:45;96248.56;;;5.53;60.36
63019;BME280;49105;46.046;10.760;2023-04-10T05:13:18;96245.25;;;5.58;59.66
63019;BME280;49105;46.046;10.760;2023-04-10T05:15:44;96248.56;;;5.53;59.88
63019;BME280;49105;46.046;10.760;2023-04-10T05:18:09;96247.31;;;5.56;59.92
63019;BME280;49105;46.046;10.760;2023-04-10T05:20:38;96254.28;;;5.62;59.62
63019;BME280;49105;46.046;10.760;2023-04-10T05:23:10;96259.88;;;5.65;59.94
63019;BME280;49105;46.046;10.760;2023-04-10T05:25:35;96253.72;;;5.71;59.43
63019;BME280;49105;46.046;10.760;2023-04-10T05:28:12;96252.38;;;5.69;59.82
63019;BME280;49105;46.046;10.760;2023-04-10T05:30:44;96254.38;;;5.55;59.78
63019;BME280;49105;46.046;10.760;2023-04-10T05:33:18;96253.25;;;5.63;59.89
63019;BME280;49105;46.046;10.760;2023-04-10T05:35:56;96262.19;;;5.73;59.59
63019;BME280;49105;46.046;10.760;2023-04-10T05:38:30;96253.97;;;5.82;59.81
63019;BME280;49105;46.046;10.760;2023-04-10T05:40:56;96260.34;;;5.74;60.01
63019;BME280;49105;46.046;10.760;2023-04-10T05:43:29;96270.63;;;5.76;59.83
63019;BME280;49105;46.046;10.760;2023-04-10T05:46:00;96270.63;;;5.76;59.58
63019;BME280;49105;46.046;10.760;2023-04-10T05:48:26;96268.91;;;5.69;59.87
63019;BME280;49105;46.046;10.760;2023-04-10T05:50:56;96275.75;;;5.59;60.18
63019;BME280;49105;46.046;10.760;2023-04-10T05:53:27;96278.69;;;5.51;60.15
63019;BME280;49105;46.046;10.760;2023-04-10T05:56:04;96281.09;;;5.52;60.05
63019;BME280;49105;46.046;10.760;2023-04-10T05:58:30;96276.53;;;5.59;60.16
63019;BME280;49105;46.046;10.760;2023-04-10T06:00:58;96277.91;;;5.62;60.31
63019;BME280;49105;46.046;10.760;2023-04-10T06:03:24;96279.44;;;5.69;60.05
63019;BME280;49105;46.046;10.760;2023-04-10T06:05:52;96288.84;;;5.89;60.07
63019;BME280;49105;46.046;10.760;2023-04-10T06:08:17;96289.22;;;6.16;59.23
63019;BME280;49105;46.046;10.760;2023-04-10T06:10:45;96287.03;;;6.36;58.90
63019;BME280;49105;46.046;10.760;2023-04-10T06:13:11;96292.75;;;6.57;59.06
63019;BME280;49105;46.046;10.760;2023-04-10T06:15:42;96290.91;;;6.69;58.65
63019;BME280;49105;46.046;10.760;2023-04-10T06:18:17;96292.50;;;6.70;58.52
63019;BME280;49105;46.046;10.760;2023-04-10T06:24:04;96287.56;;;6.74;58.40
63019;BME280;49105;46.046;10.760;2023-04-10T06:26:36;96290.28;;;6.79;58.74
63019;BME280;49105;46.046;10.760;2023-04-10T06:29:05;96290.88;;;6.81;58.35
63019;BME280;49105;46.046;10.760;2023-04-10T06:31:40;96291.78;;;6.86;58.46
63019;BME280;49105;46.046;10.760;2023-04-10T06:34:15;96289.44;;;7.02;58.26
63019;BME280;49105;46.046;10.760;2023-04-10T06:36:50;96284.50;;;7.17;57.90
63019;BME280;49105;46.046;10.760;2023-04-10T06:39:16;96286.50;;;7.27;57.82
63019;BME280;49105;46.046;10.760;2023-04-10T06:41:51;96280.72;;;7.41;57.76
63019;BME280;49105;46.046;10.760;2023-04-10T06:44:16;96282.72;;;7.51;57.36
63019;BME280;49105;46.046;10.760;2023-04-10T06:46:43;96286.34;;;7.62;57.02
63019;BME280;49105;46.046;10.760;2023-04-10T06:49:17;96281.25;;;7.72;56.99
63019;BME280;49105;46.046;10.760;2023-04-10T06:51:49;96276.38;;;7.81;56.84
63019;BME280;49105;46.046;10.760;2023-04-10T06:54:20;96279.25;;;7.79;56.80
63019;BME280;49105;46.046;10.760;2023-04-10T06:56:52;96271.44;;;7.84;56.70
63019;BME280;49105;46.046;10.760;2023-04-10T06:59:31;96271.28;;;7.91;56.45
63019;BME280;49105;46.046;10.760;2023-04-10T07:02:08;96271.59;;;7.94;56.74
63019;BME280;49105;46.046;10.760;2023-04-10T07:04:33;96268.78;;;8.01;56.36
63019;BME280;49105;46.046;10.760;2023-04-10T07:06:59;96265.53;;;8.11;56.02
63019;BME280;49105;46.046;10.760;2023-04-10T07:09:35;96262.38;;;8.14;55.97
63019;BME280;49105;46.046;10.760;2023-04-10T07:12:00;96260.88;;;8.18;56.13
63019;BME280;49105;46.046;10.760;2023-04-10T07:14:33;96254.88;;;8.23;55.86
63019;BME280;49105;46.046;10.760;2023-04-10T07:17:09;96259.44;;;8.27;55.89
63019;BME280;49105;46.046;10.760;2023-04-10T07:19:43;96256.88;;;8.32;55.58
63019;BME280;49105;46.046;10.760;2023-04-10T07:22:09;96255.81;;;8.33;55.42
63019;BME280;49105;46.046;10.760;2023-04-10T07:24:43;96254.78;;;8.34;55.02
63019;BME280;49105;46.046;10.760;2023-04-10T07:27:21;96260.16;;;8.39;55.19
63019;BME280;49105;46.046;10.760;2023-04-10T07:29:49;96254.16;;;8.44;54.89
63019;BME280;49105;46.046;10.760;2023-04-10T07:32:20;96251.91;;;8.53;55.37
63019;BME280;49105;46.046;10.760;2023-04-10T07:34:56;96257.56;;;8.61;54.63
63019;BME280;49105;46.046;10.760;2023-04-10T07:37:27;96245.78;;;8.69;54.65
63019;BME280;49105;46.046;10.760;2023-04-10T07:39:53;96244.97;;;8.68;54.33
63019;BME280;49105;46.046;10.760;2023-04-10T07:42:27;96243.94;;;8.69;54.72
63019;BME280;49105;46.046;10.760;2023-04-10T07:45:02;96240.44;;;8.86;54.01
63019;BME280;49105;46.046;10.760;2023-04-10T07:47:36;96243.75;;;8.98;53.64
63019;BME280;49105;46.046;10.760;2023-04-10T07:50:03;96239.34;;;9.09;53.84
63019;BME280;49105;46.046;10.760;2023-04-10T07:52:32;96238.44;;;9.20;53.40
63019;BME280;49105;46.046;10.760;2023-04-10T07:55:01;96234.81;;;9.26;52.73
63019;BME280;49105;46.046;10.760;2023-04-10T08:00:48;96234.09;;;9.36;52.60
63019;BME280;49105;46.046;10.760;2023-04-10T08:03:23;96232.81;;;9.38;53.30
63019;BME280;49105;46.046;10.760;2023-04-10T08:05:49;96228.09;;;9.45;52.80
63019;BME280;49105;46.046;10.760;2023-04-10T08:08:26;96223.97;;;9.55;52.60
63019;BME280;49105;46.046;10.760;2023-04-10T08:10:58;96230.72;;;9.73;52.18
63019;BME280;49105;46.046;10.760;2023-04-10T08:13:26;96227.63;;;9.81;52.10
63019;BME280;49105;46.046;10.760;2023-04-10T08:15:58;96223.66;;;9.83;52.15
63019;BME280;49105;46.046;10.760;2023-04-10T08:18:32;96221.31;;;9.87;51.99
63019;BME280;49105;46.046;10.760;2023-04-10T08:20:58;96211.00;;;9.85;51.13
63019;BME280;49105;46.046;10.760;2023-04-10T08:23:23;96216.28;;;9.85;51.66
63019;BME280;49105;46.046;10.760;2023-04-10T08:25:52;96213.94;;;9.89;51.10
63019;BME280;49105;46.046;10.760;2023-04-10T08:28:23;96211.03;;;9.90;50.83
63019;BME280;49105;46.046;10.760;2023-04-10T08:30:55;96210.25;;;9.95;51.43
63019;BME280;49105;46.046;10.760;2023-04-10T08:33:20;96206.94;;;10.10;50.96
63019;BME280;49105;46.046;10.760;2023-04-10T08:35:55;96206.81;;;10.27;51.09
63019;BME280;49105;46.046;10.760;2023-04-10T08:38:28;96199.47;;;10.44;50.64
63019;BME280;49105;46.046;10.760;2023-04-10T08:40:53;96201.91;;;10.51;50.55
63019;BME280;49105;46.046;10.760;2023-04-10T08:43:25;96198.78;;;10.64;51.08
63019;BME280;49105;46.046;10.760;2023-04-10T08:45:57;96187.19;;;10.75;50.82
63019;BME280;49105;46.046;10.760;2023-04-10T08:48:46;96181.09;;;10.85;50.75
63019;BME280;49105;46.046;10.760;2023-04-10T08:51:18;96179.53;;;10.94;50.78
63019;BME280;49105;46.046;10.760;2023-04-10T08:53:54;96172.97;;;11.07;50.68
63019;BME280;49105;46.046;10.760;2023-04-10T08:56:21;96173.50;;;11.14;50.64
63019;BME280;49105;46.046;10.760;2023-04-10T08:58:56;96170.09;;;11.24;50.65
63019;BME280;49105;46.046;10.760;2023-04-10T09:01:28;96171.94;;;11.33;50.18
63019;BME280;49105;46.046;10.760;2023-04-10T09:03:54;96170.34;;;11.42;49.62
63019;BME280;49105;46.046;10.760;2023-04-10T09:06:28;96173.53;;;11.55;49.61
63019;BME280;49105;46.046;10.760;2023-04-10T09:09:06;96168.25;;;11.65;49.53
63019;BME280;49105;46.046;10.760;2023-04-10T09:14:32;96166.09;;;11.72;48.05
63019;BME280;49105;46.046;10.760;2023-04-10T09:17:17;96161.59;;;11.67;47.75
63019;BME280;49105;46.046;10.760;2023-04-10T09:19:51;96157.09;;;11.73;47.35
63019;BME280;49105;46.046;10.760;2023-04-10T09:22:18;96153.38;;;11.74;47.09
63019;BME280;49105;46.046;10.760;2023-04-10T09:24:54;96164.00;;;11.84;47.19
63019;BME280;49105;46.046;10.760;2023-04-10T09:27:28;96156.84;;;11.95;47.10
63019;BME280;49105;46.046;10.760;2023-04-10T09:29:56;96151.78;;;11.99;46.93
63019;BME280;49105;46.046;10.760;2023-04-10T09:35:12;96151.75;;;12.09;46.03
63019;BME280;49105;46.046;10.760;2023-04-10T09:37:46;96139.00;;;12.21;46.43
63019;BME280;49105;46.046;10.760;2023-04-10T09:40:20;96134.97;;;12.34;45.47
63019;BME280;49105;46.046;10.760;2023-04-10T09:42:46;96135.19;;;12.42;45.15
63019;BME280;49105;46.046;10.760;2023-04-10T09:45:11;96126.69;;;12.46;44.24
63019;BME280;49105;46.046;10.760;2023-04-10T09:47:40;96127.50;;;12.51;44.86
63019;BME280;49105;46.046;10.760;2023-04-10T09:50:06;96130.63;;;12.58;44.90
63019;BME280;49105;46.046;10.760;2023-04-10T09:52:34;96120.84;;;12.49;41.82
63019;BME280;49105;46.046;10.760;2023-04-10T09:55:05;96108.44;;;12.39;42.88
63019;BME280;49105;46.046;10.760;2023-04-10T09:57:43;96107.88;;;12.47;42.82
63019;BME280;49105;46.046;10.760;2023-04-10T10:00:19;96110.72;;;12.61;42.79
63019;BME280;49105;46.046;10.760;2023-04-10T10:02:51;96109.91;;;12.60;41.23
63019;BME280;49105;46.046;10.760;2023-04-10T10:05:24;96101.66;;;12.62;41.38
63019;BME280;49105;46.046;10.760;2023-04-10T10:07:55;96097.66;;;12.70;41.19
63019;BME280;49105;46.046;10.760;2023-04-10T10:10:22;96098.19;;;12.72;40.97
63019;BME280;49105;46.046;10.760;2023-04-10T10:12:51;96102.09;;;12.79;41.02
63019;BME280;49105;46.046;10.760;2023-04-10T10:20:44;96077.84;;;12.96;39.68
63019;BME280;49105;46.046;10.760;2023-04-10T10:23:18;96078.63;;;12.97;39.28
63019;BME280;49105;46.046;10.760;2023-04-10T10:25:55;96080.69;;;13.05;39.42
63019;BME280;49105;46.046;10.760;2023-04-10T10:28:32;96073.19;;;13.12;39.84
63019;BME280;49105;46.046;10.760;2023-04-10T10:31:07;96079.81;;;13.14;39.51
63019;BME280;49105;46.046;10.760;2023-04-10T10:33:49;96065.16;;;13.22;39.75
63019;BME280;49105;46.046;10.760;2023-04-10T10:36:19;96064.63;;;13.25;39.44
63019;BME280;49105;46.046;10.760;2023-04-10T10:45:39;96050.88;;;13.47;38.42
63019;BME280;49105;46.046;10.760;2023-04-10T10:47:53;96055.63;;;13.50;39.12
63019;BME280;49105;46.046;10.760;2023-04-10T10:50:19;96044.94;;;13.55;38.49
63019;BME280;49105;46.046;10.760;2023-04-10T10:52:52;96043.00;;;13.61;37.99
63019;BME280;49105;46.046;10.760;2023-04-10T10:57:54;96031.75;;;13.69;37.62
63019;BME280;49105;46.046;10.760;2023-04-10T11:00:21;96033.31;;;13.75;37.58
63019;BME280;49105;46.046;10.760;2023-04-10T11:16:13;96008.78;;;14.02;37.09
63019;BME280;49105;46.046;10.760;2023-04-10T11:21:23;95994.97;;;14.19;37.78
63019;BME280;49105;46.046;10.760;2023-04-10T11:31:59;95986.16;;;14.24;37.64
63019;BME280;49105;46.046;10.760;2023-04-10T11:34:26;95976.72;;;14.31;37.50
63019;BME280;49105;46.046;10.760;2023-04-10T11:37:03;95968.69;;;14.36;37.40
63019;BME280;49105;46.046;10.760;2023-04-10T11:39:37;95971.19;;;14.47;37.76
63019;BME280;49105;46.046;10.760;2023-04-10T11:42:12;95971.19;;;14.47;37.63
63019;BME280;49105;46.046;10.760;2023-04-10T11:44:44;95967.50;;;14.43;36.78
63019;BME280;49105;46.046;10.760;2023-04-10T11:47:13;95954.59;;;14.55;37.53
63019;BME280;49105;46.046;10.760;2023-04-10T11:49:38;95962.13;;;14.67;37.86
63019;BME280;49105;46.046;10.760;2023-04-10T11:52:10;95948.44;;;14.73;37.08
63019;BME280;49105;46.046;10.760;2023-04-10T11:54:47;95946.69;;;14.82;36.82
63019;BME280;49105;46.046;10.760;2023-04-10T11:57:21;95952.31;;;14.81;36.94
63019;BME280;49105;46.046;10.760;2023-04-10T11:59:49;95943.16;;;14.87;36.92
63019;BME280;49105;46.046;10.760;2023-04-10T12:02:24;95937.75;;;14.92;36.63
63019;BME280;49105;46.046;10.760;2023-04-10T12:05:02;95941.69;;;14.95;37.03
63019;BME280;49105;46.046;10.760;2023-04-10T12:07:27;95928.16;;;14.91;36.69
63019;BME280;49105;46.046;10.760;2023-04-10T12:10:02;95927.88;;;14.93;36.65
63019;BME280;49105;46.046;10.760;2023-04-10T12:12:34;95935.28;;;14.96;36.50
63019;BME280;49105;46.046;10.760;2023-04-10T12:15:29;95926.72;;;14.99;36.43
63019;BME280;49105;46.046;10.760;2023-04-10T12:17:57;95925.31;;;15.01;35.51
63019;BME280;49105;46.046;10.760;2023-04-10T12:20:29;95927.19;;;15.01;35.20
63019;BME280;49105;46.046;10.760;2023-04-10T12:22:54;95926.13;;;15.02;35.29
63019;BME280;49105;46.046;10.760;2023-04-10T12:25:30;95924.25;;;15.02;34.94
63019;BME280;49105;46.046;10.760;2023-04-10T12:28:02;95921.19;;;15.09;34.56
63019;BME280;49105;46.046;10.760;2023-04-10T12:30:33;95920.03;;;15.15;35.02
63019;BME280;49105;46.046;10.760;2023-04-10T12:32:58;95923.38;;;15.21;34.99
63019;BME280;49105;46.046;10.760;2023-04-10T12:35:38;95922.00;;;15.23;35.24
63019;BME280;49105;46.046;10.760;2023-04-10T12:38:03;95921.50;;;15.21;34.58
63019;BME280;49105;46.046;10.760;2023-04-10T12:40:29;95912.72;;;15.21;34.78
63019;BME280;49105;46.046;10.760;2023-04-10T12:43:04;95906.59;;;15.20;35.00
63019;BME280;49105;46.046;10.760;2023-04-10T12:49:14;95903.03;;;15.38;34.25
63019;BME280;49105;46.046;10.760;2023-04-10T12:51:48;95892.88;;;15.41;34.84
63019;BME280;49105;46.046;10.760;2023-04-10T12:54:28;95899.88;;;15.50;34.78
63019;BME280;49105;46.046;10.760;2023-04-10T12:57:02;95895.16;;;15.47;34.39
63019;BME280;49105;46.046;10.760;2023-04-10T12:59:36;95897.13;;;15.42;34.53
63019;BME280;49105;46.046;10.760;2023-04-10T13:02:05;95901.28;;;15.48;34.57
63019;BME280;49105;46.046;10.760;2023-04-10T13:04:40;95900.66;;;15.51;34.86
63019;BME280;49105;46.046;10.760;2023-04-10T13:07:10;95900.66;;;15.51;34.55
63019;BME280;49105;46.046;10.760;2023-04-10T13:09:35;95891.50;;;15.43;34.31
63019;BME280;49105;46.046;10.760;2023-04-10T13:12:01;95892.88;;;15.41;34.36
63019;BME280;49105;46.046;10.760;2023-04-10T13:14:29;95896.03;;;15.43;34.50
63019;BME280;49105;46.046;10.760;2023-04-10T13:16:55;95904.44;;;15.50;34.80
63019;BME280;49105;46.046;10.760;2023-04-10T13:19:26;95900.09;;;15.54;34.88
63019;BME280;49105;46.046;10.760;2023-04-10T13:22:01;95907.00;;;15.55;34.42
63019;BME280;49105;46.046;10.760;2023-04-10T13:24:35;95895.84;;;15.53;34.25
63019;BME280;49105;46.046;10.760;2023-04-10T13:27:01;95903.84;;;15.53;33.91
63019;BME280;49105;46.046;10.760;2023-04-10T13:29:41;95892.59;;;15.56;34.32
63019;BME280;49105;46.046;10.760;2023-04-10T13:32:07;95892.41;;;15.66;34.40
63019;BME280;49105;46.046;10.760;2023-04-10T13:34:32;95886.94;;;15.71;34.38
63019;BME280;49105;46.046;10.760;2023-04-10T13:36:58;95888.63;;;15.67;34.01
63019;BME280;49105;46.046;10.760;2023-04-10T13:39:33;95883.69;;;15.60;33.47
63019;BME280;49105;46.046;10.760;2023-04-10T13:41:59;95883.09;;;15.63;33.81
63019;BME280;49105;46.046;10.760;2023-04-10T13:44:32;95889.34;;;15.73;34.14
63019;BME280;49105;46.046;10.760;2023-04-10T13:47:06;95881.91;;;15.70;33.85
63019;BME280;49105;46.046;10.760;2023-04-10T13:49:32;95882.50;;;15.67;33.85
63019;BME280;49105;46.046;10.760;2023-04-10T13:52:09;95879.91;;;15.61;33.67
63019;BME280;49105;46.046;10.760;2023-04-10T13:54:38;95887.44;;;15.59;33.77
63019;BME280;49105;46.046;10.760;2023-04-10T13:57:03;95881.59;;;15.57;33.93
63019;BME280;49105;46.046;10.760;2023-04-10T13:59:35;95881.31;;;15.45;33.70
63019;BME280;49105;46.046;10.760;2023-04-10T14:02:10;95883.78;;;15.42;33.79
63019;BME280;49105;46.046;10.760;2023-04-10T14:04:41;95882.69;;;15.43;34.10
63019;BME280;49105;46.046;10.760;2023-04-10T14:07:17;95875.59;;;15.52;33.91
63019;BME280;49105;46.046;10.760;2023-04-10T14:09:49;95882.81;;;15.65;34.20
63019;BME280;49105;46.046;10.760;2023-04-10T14:12:21;95883.59;;;15.66;34.02
63019;BME280;49105;46.046;10.760;2023-04-10T14:14:53;95873.28;;;15.59;33.40
63019;BME280;49105;46.046;10.760;2023-04-10T14:17:19;95870.25;;;15.52;33.36
63019;BME280;49105;46.046;10.760;2023-04-10T14:19:47;95866.31;;;15.49;33.56
63019;BME280;49105;46.046;10.760;2023-04-10T14:25:37;95865.28;;;15.59;33.34
63019;BME280;49105;46.046;10.760;2023-04-10T14:28:11;95874.38;;;15.58;32.72
63019;BME280;49105;46.046;10.760;2023-04-10T14:30:50;95864.50;;;15.58;32.67